Time;durP1;ratioP1;P1;durP2;ratioP2;P2;SDS_P1;SDS_P2;PMS_P1;PMS_P2;Temp;Humidity;BMP_temperature;BMP_pressure;BME280_temperature;BME280_humidity;BME280_pressure;Samples;Min_cycle;Max_cycle;Signal;HPM_P1;HPM_P2
2021/11/13 00:00:33;;;;;;;35.03;16.52;;;;;;;1.77;85.13;95502.09;5086791;28;20560;-68
2021/11/13 00:03:01;;;;;;;31.25;15.55;;;;;;;1.82;85.32;95504.97;5086492;28;20416;-68
2021/11/13 00:05:27;;;;;;;32.90;15.25;;;;;;;1.79;85.72;95511.22;5091891;28;20415;-68
2021/11/13 00:07:54;;;;;;;29.27;14.50;;;;;;;1.80;85.68;95507.72;5086346;28;20475;-67
2021/11/13 00:10:26;;;;;;;39.03;15.95;;;;;;;1.87;85.52;95513.81;5086189;28;20109;-68
2021/11/13 00:12:55;;;;;;;38.25;15.57;;;;;;;1.86;86.13;95511.41;5092396;28;20040;-68
2021/11/13 00:15:22;;;;;;;35.67;16.13;;;;;;;1.85;85.42;95518.28;5085147;28;20048;-67
2021/11/13 00:17:52;;;;;;;37.25;17.05;;;;;;;1.81;85.24;95513.66;5087016;28;20043;-68
2021/11/13 00:20:21;;;;;;;38.15;14.93;;;;;;;1.64;85.86;95490.53;5084685;28;20493;-68
2021/11/13 00:22:49;;;;;;;40.58;14.80;;;;;;;1.67;85.56;95497.88;5085469;28;20109;-68
2021/11/13 00:25:16;;;;;;;30.40;15.82;;;;;;;1.62;84.79;95495.00;5086825;28;20048;-67
2021/11/13 00:27:43;;;;;;;32.95;13.02;;;;;;;1.50;84.22;95475.75;5085893;28;20109;-68
2021/11/13 00:30:11;;;;;;;31.52;14.55;;;;;;;1.63;86.09;95514.56;5086722;28;20473;-67
2021/11/13 00:32:38;;;;;;;27.48;13.88;;;;;;;1.35;88.63;95514.03;5084783;28;20116;-68
2021/11/13 00:35:05;;;;;;;35.20;17.02;;;;;;;1.41;88.70;95512.63;5084294;28;20036;-68
2021/11/13 00:37:33;;;;;;;35.15;14.05;;;;;;;1.42;88.05;95514.22;5085411;28;20063;-68
2021/11/13 00:40:00;;;;;;;37.95;16.30;;;;;;;1.37;88.49;95511.31;5089444;28;20420;-68
2021/11/13 00:42:27;;;;;;;35.83;17.83;;;;;;;1.11;90.25;95491.69;5091285;28;20040;-68
2021/11/13 00:44:53;;;;;;;35.17;17.00;;;;;;;1.29;90.33;95512.09;5086859;28;21857;-67
2021/11/13 00:47:20;;;;;;;32.42;16.08;;;;;;;1.31;90.10;95512.75;5084877;28;20040;-68
2021/11/13 00:49:47;;;;;;;37.33;16.80;;;;;;;1.34;89.59;95517.56;5084416;28;20050;-68
2021/11/13 00:52:14;;;;;;;35.08;14.55;;;;;;;1.34;89.31;95507.31;5084313;28;20044;-68
2021/11/13 00:54:41;;;;;;;32.08;15.38;;;;;;;1.38;88.43;95507.78;5090362;28;20032;-67
2021/11/13 00:57:08;;;;;;;36.05;14.60;;;;;;;1.37;88.06;95511.31;5088662;28;20048;-68
2021/11/13 00:59:37;;;;;;;29.65;12.45;;;;;;;1.37;87.45;95511.31;5083004;28;20060;-68
2021/11/13 01:02:06;;;;;;;30.25;12.13;;;;;;;1.36;87.14;95509.72;5083093;28;20506;-68
2021/11/13 01:04:34;;;;;;;23.85;13.15;;;;;;;1.33;87.00;95509.06;5088116;28;20121;-68
2021/11/13 01:07:01;;;;;;;29.75;12.73;;;;;;;1.25;87.11;95514.19;5085536;28;20455;-68
2021/11/13 01:09:28;;;;;;;25.90;11.40;;;;;;;1.23;88.27;95508.41;5083408;28;20036;-68
2021/11/13 01:11:57;;;;;;;24.83;12.55;;;;;;;1.27;87.61;95512.25;5083779;28;20036;-68
2021/11/13 01:14:25;;;;;;;25.17;11.82;;;;;;;1.27;87.15;95507.13;5084037;28;20097;-68
2021/11/13 01:16:53;;;;;;;31.73;13.48;;;;;;;1.26;86.79;95509.84;5082317;28;20047;-68
2021/11/13 01:19:20;;;;;;;22.15;11.43;;;;;;;1.20;86.78;95506.13;5085457;28;20048;-68
2021/11/13 01:21:48;;;;;;;21.88;11.18;;;;;;;1.19;86.50;95504.53;5086440;28;20040;-69
2021/11/13 01:24:15;;;;;;;30.70;13.05;;;;;;;1.13;86.22;95505.16;5082562;28;20417;-68
2021/11/13 01:26:42;;;;;;;24.73;11.75;;;;;;;0.97;85.67;95484.56;5085000;28;20087;-68
2021/11/13 01:29:08;;;;;;;26.73;12.18;;;;;;;1.07;85.76;95495.53;5088749;28;20052;-68
2021/11/13 01:31:35;;;;;;;22.95;12.18;;;;;;;0.97;85.80;95482.00;5084355;28;20048;-68
2021/11/13 01:34:02;;;;;;;26.38;11.30;;;;;;;1.01;86.03;95491.00;5083631;28;20041;-69
2021/11/13 01:36:30;;;;;;;26.88;12.15;;;;;;;0.95;86.35;95492.41;5082208;28;20044;-68
2021/11/13 01:38:56;;;;;;;24.63;10.60;;;;;;;0.74;86.28;95474.88;5084310;28;20049;-68
2021/11/13 01:41:24;;;;;;;26.15;10.82;;;;;;;0.80;86.32;95489.66;5084080;28;20063;-68
2021/11/13 01:43:51;;;;;;;25.13;11.32;;;;;;;0.77;86.61;95489.94;5085225;28;20520;-68
2021/11/13 01:46:19;;;;;;;19.63;11.60;;;;;;;0.74;86.36;95495.41;5082839;28;20165;-68
2021/11/13 01:48:45;;;;;;;25.30;11.50;;;;;;;0.70;86.33;95491.50;5081774;28;20040;-68
2021/11/13 01:51:16;;;;;;;27.13;13.10;;;;;;;0.71;86.91;95496.50;5082311;28;20557;-68
2021/11/13 01:53:44;;;;;;;22.98;11.82;;;;;;;0.74;87.17;95490.28;5082151;28;20127;-68
2021/11/13 01:56:17;;;;;;;26.20;13.50;;;;;;;0.74;86.23;95496.19;5081899;28;20044;-68
2021/11/13 01:58:46;;;;;;;28.35;11.75;;;;;;;0.69;86.29;95492.47;5085081;28;20520;-68
2021/11/13 02:01:12;;;;;;;25.77;11.93;;;;;;;0.68;86.43;95485.75;5083357;28;20044;-68
2021/11/13 02:03:39;;;;;;;23.75;10.00;;;;;;;0.64;86.56;95484.44;5088969;28;20043;-68
2021/11/13 02:06:06;;;;;;;29.67;12.10;;;;;;;0.56;86.65;95483.44;5081144;28;20097;-68
2021/11/13 02:08:33;;;;;;;27.92;12.32;;;;;;;0.52;87.00;95477.03;5082442;28;20063;-68
2021/11/13 02:11:00;;;;;;;32.33;12.23;;;;;;;0.51;86.82;95485.66;5083244;28;20041;-69
2021/11/13 02:13:27;;;;;;;22.92;11.52;;;;;;;0.55;87.19;95486.94;5083037;28;20047;-68
2021/11/13 02:15:54;;;;;;;23.50;11.02;;;;;;;0.25;87.03;95451.56;5083134;28;20121;-68
2021/11/13 02:18:20;;;;;;;21.50;11.15;;;;;;;0.48;87.36;95491.09;5086174;28;20527;-68
2021/11/13 02:20:47;;;;;;;30.00;13.43;;;;;;;0.52;87.18;95489.84;5083033;28;20056;-68
2021/11/13 02:23:17;;;;;;;23.92;11.57;;;;;;;0.59;87.48;95492.59;5083401;28;20425;-67
2021/11/13 02:25:46;;;;;;;24.10;12.50;;;;;;;0.68;87.44;95485.75;5081471;28;20413;-68
2021/11/13 02:28:16;;;;;;;22.52;11.27;;;;;;;0.76;86.98;95485.78;5086874;28;20606;-68
2021/11/13 02:30:45;;;;;;;25.10;9.68;;;;;;;0.57;86.80;95464.53;5082810;28;20142;-68
2021/11/13 02:33:13;;;;;;;25.98;11.80;;;;;;;0.72;86.47;95487.03;5084674;28;20051;-67
2021/11/13 02:35:41;;;;;;;23.33;11.10;;;;;;;0.71;86.06;95485.44;5087593;28;20044;-68
2021/11/13 02:38:15;;;;;;;19.27;9.48;;;;;;;0.68;85.97;95480.63;5084752;28;20402;-68
2021/11/13 02:40:44;;;;;;;20.27;8.25;;;;;;;0.65;85.73;95479.16;5084326;28;20055;-68
2021/11/13 02:43:12;;;;;;;24.88;11.35;;;;;;;0.59;86.08;95481.53;5083718;28;20051;-68
2021/11/13 02:45:40;;;;;;;21.95;10.05;;;;;;;0.60;85.86;95485.72;5085011;28;20097;-68
2021/11/13 02:48:08;;;;;;;21.90;10.73;;;;;;;0.57;85.91;95482.47;5083459;28;20051;-68
2021/11/13 02:50:35;;;;;;;21.10;9.52;;;;;;;0.53;86.59;95481.19;5077639;28;20047;-68
2021/11/13 02:53:09;;;;;;;20.67;9.30;;;;;;;0.47;87.19;95486.94;5085070;28;20740;-68
2021/11/13 02:55:36;;;;;;;17.10;8.88;;;;;;;0.38;87.20;95475.03;5083966;28;20040;-68
2021/11/13 02:58:02;;;;;;;18.00;8.70;;;;;;;0.34;87.48;95466.00;5083789;28;20051;-68
2021/11/13 03:00:29;;;;;;;19.55;9.00;;;;;;;0.40;87.54;95483.38;5085733;28;20534;-68
2021/11/13 03:02:56;;;;;;;17.70;7.95;;;;;;;0.41;87.90;95479.81;5086472;28;20044;-68
2021/11/13 03:05:25;;;;;;;16.20;8.55;;;;;;;0.42;88.42;95485.78;5084821;28;20040;-68
2021/11/13 03:07:53;;;;;;;18.02;7.90;;;;;;;0.41;88.75;95484.94;5089892;28;20498;-69
2021/11/13 03:10:23;;;;;;;15.60;8.10;;;;;;;0.39;89.06;95481.75;5083717;28;20059;-68
2021/11/13 03:12:51;;;;;;;24.38;7.90;;;;;;;0.41;89.11;95484.94;5085688;28;20451;-68
2021/11/13 03:15:21;;;;;;;16.80;7.65;;;;;;;0.39;88.67;95486.88;5081408;28;20398;-68
2021/11/13 03:17:49;;;;;;;13.48;6.95;;;;;;;0.39;88.35;95489.44;5083342;28;20521;-68
2021/11/13 03:20:19;;;;;;;13.82;6.57;;;;;;;0.31;88.33;95486.84;5082407;28;20272;-68
2021/11/13 03:22:47;;;;;;;12.23;5.65;;;;;;;0.28;88.40;95492.25;5083613;28;20417;-68
2021/11/13 03:25:18;;;;;;;11.98;6.20;;;;;;;0.13;87.92;95490.25;5081783;28;20125;-68
2021/11/13 03:27:52;;;;;;;103.63;34.85;;;;;;;0.01;87.71;95478.63;5084194;28;20835;-68
2021/11/13 03:30:21;;;;;;;116.05;42.20;;;;;;;0.08;88.07;95499.31;5086524;28;20051;-68
2021/11/13 03:32:51;;;;;;;95.63;34.80;;;;;;;0.05;88.65;95494.50;5084137;28;20043;-67
2021/11/13 03:35:27;;;;;;;131.68;44.70;;;;;;;0.03;88.49;95492.06;5088594;28;20124;-67
2021/11/13 03:38:02;;;;;;;84.35;32.42;;;;;;;-0.03;88.07;95502.94;5084691;28;20040;-68
2021/11/13 03:40:29;;;;;;;79.28;34.50;;;;;;;-0.08;88.15;95507.69;5085598;28;20073;-68
2021/11/13 03:42:56;;;;;;;81.28;29.92;;;;;;;-0.13;88.23;95507.31;5087306;28;20040;-68
2021/11/13 03:45:23;;;;;;;98.95;36.97;;;;;;;-0.13;88.15;95502.19;5088879;28;20044;-69
2021/11/13 03:47:50;;;;;;;88.32;31.20;;;;;;;-0.13;88.03;95507.31;5083050;28;20044;-68
2021/11/13 03:50:17;;;;;;;70.90;29.92;;;;;;;-0.20;88.22;95497.69;5082757;28;20040;-68
2021/11/13 03:52:44;;;;;;;51.20;24.20;;;;;;;-0.16;88.02;95505.03;5103402;28;20044;-68
2021/11/13 03:55:11;;;;;;;52.63;21.77;;;;;;;-0.26;87.99;95493.13;5088278;28;20044;-68
2021/11/13 03:57:38;;;;;;;40.33;15.85;;;;;;;-0.20;88.59;95507.91;5086373;28;20040;-68
2021/11/13 04:00:07;;;;;;;25.85;11.00;;;;;;;-0.24;89.20;95506.59;5083926;28;20047;-68
2021/11/13 04:02:40;;;;;;;37.50;16.45;;;;;;;-0.30;89.64;95506.38;5087151;28;20123;-68
2021/11/13 04:05:07;;;;;;;25.55;12.48;;;;;;;-0.32;89.77;95503.97;5082907;28;20044;-69
2021/11/13 04:07:34;;;;;;;26.33;12.38;;;;;;;-0.35;90.24;95499.13;5081489;28;20055;-69
2021/11/13 04:10:04;;;;;;;18.73;8.63;;;;;;;-0.37;90.24;95498.47;5081612;28;20052;-68
2021/11/13 04:12:31;;;;;;;19.90;7.05;;;;;;;-0.40;90.68;95504.72;5087594;28;20059;-68
2021/11/13 04:14:57;;;;;;;14.85;7.78;;;;;;;-0.44;91.24;95500.03;5082707;28;20520;-68
2021/11/13 04:17:24;;;;;;;13.65;6.50;;;;;;;-0.47;91.10;95500.31;5084354;28;20040;-68
2021/11/13 04:19:51;;;;;;;20.13;8.55;;;;;;;-0.47;91.37;95500.31;5087115;28;20039;-68
2021/11/13 04:22:18;;;;;;;18.40;7.82;;;;;;;-0.47;91.58;95502.88;5082317;28;20071;-68
2021/11/13 04:24:46;;;;;;;19.88;8.45;;;;;;;-0.52;91.62;95497.38;5081602;28;20048;-68
2021/11/13 04:27:15;;;;;;;17.25;8.07;;;;;;;-0.63;91.72;95476.19;5086704;28;20044;-68
2021/11/13 04:29:43;;;;;;;20.20;8.07;;;;;;;-0.53;91.80;95500.91;5085710;28;20043;-68
2021/11/13 04:32:11;;;;;;;20.95;10.13;;;;;;;-0.51;91.62;95499.00;5086569;28;20040;-68
2021/11/13 04:37:29;;;;;;;20.38;10.13;;;;;;;-0.62;91.15;95493.13;5051048;28;20536;-68
2021/11/13 04:39:56;;;;;;;28.17;10.65;;;;;;;-0.50;91.23;95505.72;5086587;28;20498;-68
2021/11/13 04:42:23;;;;;;;21.38;9.15;;;;;;;-0.55;91.49;95513.03;5089583;28;20048;-68
2021/11/13 04:44:51;;;;;;;19.30;10.50;;;;;;;-0.69;91.12;95493.84;5092369;28;20051;-68
2021/11/13 04:47:18;;;;;;;23.10;10.15;;;;;;;-0.56;90.98;95519.09;5088475;28;20044;-68
2021/11/13 04:49:45;;;;;;;20.05;10.18;;;;;;;-0.59;91.03;95518.44;5067008;28;20078;-68
2021/11/13 04:52:11;;;;;;;25.83;9.93;;;;;;;-0.57;91.19;95520.06;5084480;28;20123;-68
2021/11/13 04:54:38;;;;;;;18.33;8.73;;;;;;;-0.57;91.43;95520.06;5085039;28;20040;-67
2021/11/13 04:57:06;;;;;;;27.58;11.55;;;;;;;-0.55;91.45;95520.72;5089035;28;20048;-68
2021/11/13 04:59:33;;;;;;;19.55;10.10;;;;;;;-0.66;91.21;95504.59;5085496;28;20501;-68
2021/11/13 05:02:01;;;;;;;17.40;9.85;;;;;;;-0.66;90.84;95512.28;5090633;28;20054;-68
2021/11/13 05:04:29;;;;;;;25.08;11.35;;;;;;;-0.60;90.78;95521.94;5085991;28;20036;-68
2021/11/13 05:06:59;;;;;;;19.70;9.75;;;;;;;-0.69;90.51;95506.66;5084732;28;20513;-68
2021/11/13 05:09:25;;;;;;;29.50;13.10;;;;;;;-0.71;90.64;95509.34;5087608;28;20045;-68
2021/11/13 05:11:52;;;;;;;28.90;15.00;;;;;;;-0.70;90.69;95516.09;5090767;28;20608;-68
2021/11/13 05:14:19;;;;;;;28.30;14.73;;;;;;;-0.77;90.48;95520.16;5089300;28;20040;-68
2021/11/13 05:16:46;;;;;;;34.03;16.88;;;;;;;-0.79;90.44;95522.06;5085912;28;20062;-67
2021/11/13 05:19:13;;;;;;;27.05;12.90;;;;;;;-0.72;90.97;95528.22;5084520;28;20040;-67
2021/11/13 05:21:40;;;;;;;23.90;11.50;;;;;;;-0.73;91.49;95526.59;5087433;28;20590;-68
2021/11/13 05:24:06;;;;;;;23.17;10.98;;;;;;;-0.78;91.23;95523.66;5089836;28;20040;-68
2021/11/13 05:26:33;;;;;;;23.23;11.20;;;;;;;-0.80;90.62;95515.34;5085154;28;20414;-68
2021/11/13 05:29:01;;;;;;;27.85;12.80;;;;;;;-0.80;90.28;95515.34;5070252;28;20052;-68
2021/11/13 05:31:28;;;;;;;19.73;10.80;;;;;;;-0.72;90.04;95533.34;5088947;28;20044;-68
2021/11/13 05:33:54;;;;;;;26.38;10.70;;;;;;;-0.76;90.09;95537.13;5090819;28;20032;-68
2021/11/13 05:36:21;;;;;;;17.58;10.43;;;;;;;-0.77;90.19;95538.88;5086531;28;20040;-68
2021/11/13 05:38:48;;;;;;;38.42;18.60;;;;;;;-0.91;90.39;95529.13;5085235;28;20101;-69
2021/11/13 05:41:15;;;;;;;21.20;11.43;;;;;;;-0.89;90.86;95536.66;5090659;28;20039;-68
2021/11/13 05:43:42;;;;;;;21.25;9.73;;;;;;;-0.83;91.05;95543.75;5087796;28;20524;-68
2021/11/13 05:46:09;;;;;;;28.48;14.52;;;;;;;-0.80;91.25;95549.38;5084804;28;20051;-68
2021/11/13 05:48:36;;;;;;;41.72;18.58;;;;;;;-0.78;91.38;95549.25;5084949;28;20093;-68
2021/11/13 05:51:03;;;;;;;24.45;11.10;;;;;;;-0.87;91.36;95533.00;5075976;28;20043;-68
2021/11/13 05:53:31;;;;;;;20.30;9.57;;;;;;;-0.70;91.66;95553.63;5083388;28;20063;-68
2021/11/13 05:55:57;;;;;;;24.10;8.77;;;;;;;-0.65;91.85;95559.97;5086345;28;20039;-68
2021/11/13 05:58:24;;;;;;;15.90;8.45;;;;;;;-0.61;92.13;95556.16;5087229;28;20044;-68
2021/11/13 06:00:51;;;;;;;21.23;9.35;;;;;;;-0.63;92.61;95563.19;5088192;28;20476;-68
2021/11/13 06:03:18;;;;;;;24.90;10.52;;;;;;;-0.58;93.09;95557.63;5084318;28;20105;-68
2021/11/13 06:05:45;;;;;;;30.63;11.48;;;;;;;-0.47;93.70;95566.84;5089803;28;20421;-68
2021/11/13 06:08:12;;;;;;;19.58;9.98;;;;;;;-0.45;94.39;95560.66;5083828;28;20032;-68
2021/11/13 06:10:39;;;;;;;22.33;9.85;;;;;;;-0.38;94.81;95560.84;5085175;28;20052;-68
2021/11/13 06:13:06;;;;;;;17.02;7.68;;;;;;;-0.42;95.48;95542.41;5085518;28;20044;-68
2021/11/13 06:15:33;;;;;;;26.75;9.10;;;;;;;-0.28;96.26;95566.72;5085483;28;20521;-68
2021/11/13 06:18:00;;;;;;;21.27;7.95;;;;;;;-0.17;96.88;95562.34;5066029;28;20058;-68
2021/11/13 06:20:27;;;;;;;19.38;7.50;;;;;;;-0.09;97.08;95559.84;5082466;28;20043;-68
2021/11/13 06:22:54;;;;;;;25.42;11.25;;;;;;;-0.11;97.46;95546.38;5072163;28;20067;-67
2021/11/13 06:25:21;;;;;;;41.45;18.17;;;;;;;0.06;98.23;95558.38;5082413;28;20046;-68
2021/11/13 06:27:48;;;;;;;25.95;13.73;;;;;;;0.09;98.48;95552.97;5079679;28;20052;-68
2021/11/13 06:30:16;;;;;;;33.53;12.75;;;;;;;0.26;99.22;95568.47;5079044;28;20036;-68
2021/11/13 06:32:45;;;;;;;26.90;12.38;;;;;;;0.32;99.13;95563.53;5081352;28;20119;-68
2021/11/13 06:35:14;;;;;;;40.17;16.15;;;;;;;0.45;98.95;95570.84;5076796;28;20048;-68
2021/11/13 06:37:41;;;;;;;47.90;23.65;;;;;;;0.51;98.90;95557.44;5078634;28;20057;-68
2021/11/13 06:40:10;;;;;;;49.40;24.27;;;;;;;0.61;98.97;95566.78;5078384;28;20048;-69
2021/11/13 06:42:41;;;;;;;42.00;17.20;;;;;;;0.72;98.76;95559.66;5078883;28;20099;-69
2021/11/13 06:45:11;;;;;;;23.50;13.48;;;;;;;0.83;98.43;95566.28;5078730;28;20421;-69
2021/11/13 06:47:39;;;;;;;25.83;12.25;;;;;;;0.93;98.00;95569.53;5079671;28;20429;-68
2021/11/13 06:50:08;;;;;;;20.10;11.18;;;;;;;1.06;98.93;95571.69;5080175;28;20047;-68
2021/11/13 06:52:35;;;;;;;24.58;11.85;;;;;;;1.23;99.31;95564.06;5075919;28;20044;-68
2021/11/13 06:55:02;;;;;;;22.40;11.55;;;;;;;1.44;98.83;95564.47;5084208;28;20450;-68
2021/11/13 06:57:29;;;;;;;17.65;10.13;;;;;;;1.59;98.37;95564.66;5078997;28;20055;-68
2021/11/13 06:59:56;;;;;;;19.98;10.05;;;;;;;1.74;97.42;95569.19;5077124;28;20085;-68
2021/11/13 07:02:23;;;;;;;20.95;10.40;;;;;;;1.87;97.55;95569.50;5082671;28;20051;-68
2021/11/13 07:04:52;;;;;;;17.75;9.98;;;;;;;2.05;96.97;95557.34;5086210;28;20040;-68
2021/11/13 07:07:20;;;;;;;17.85;8.88;;;;;;;2.24;97.25;95561.34;5068476;28;20481;-68
2021/11/13 07:09:47;;;;;;;17.38;10.30;;;;;;;2.41;95.57;95562.16;5081916;28;20131;-68
2021/11/13 07:12:13;;;;;;;43.90;19.25;;;;;;;2.51;96.09;95545.75;5084483;28;20047;-68
2021/11/13 07:14:40;;;;;;;31.70;15.38;;;;;;;2.74;95.45;95541.53;5087042;28;20031;-68
2021/11/13 07:17:08;;;;;;;34.83;16.30;;;;;;;2.95;94.33;95558.19;5087207;28;20556;-68
2021/11/13 07:19:34;;;;;;;47.60;22.67;;;;;;;3.03;92.80;95560.75;5083562;28;20526;-68
2021/11/13 07:22:01;;;;;;;24.38;14.05;;;;;;;3.16;92.18;95550.72;5083194;28;20060;-68
2021/11/13 07:24:28;;;;;;;25.40;11.88;;;;;;;3.23;90.89;95551.66;5082193;28;20047;-68
2021/11/13 07:26:55;;;;;;;21.92;12.05;;;;;;;3.37;90.68;95551.94;5092677;28;20402;-68
2021/11/13 07:29:25;;;;;;;19.50;9.55;;;;;;;3.52;88.84;95555.41;5085440;28;20050;-67
2021/11/13 07:31:53;;;;;;;18.00;8.52;;;;;;;3.62;87.18;95552.63;5084661;28;20048;-68
2021/11/13 07:34:20;;;;;;;21.98;11.25;;;;;;;3.65;87.39;95544.53;5080808;28;20040;-69
2021/11/13 07:36:47;;;;;;;21.58;10.55;;;;;;;3.82;85.76;95560.72;5084801;28;20055;-68
2021/11/13 07:39:14;;;;;;;22.00;11.57;;;;;;;3.81;85.35;95564.25;5072485;28;20390;-68
2021/11/13 07:41:41;;;;;;;19.00;8.68;;;;;;;3.96;84.56;95562.56;5079431;28;20473;-67
2021/11/13 07:44:08;;;;;;;19.80;10.38;;;;;;;3.96;84.09;95549.69;5085212;28;20048;-67
2021/11/13 07:46:36;;;;;;;32.80;14.90;;;;;;;4.08;84.71;95555.22;5079538;28;20044;-68
2021/11/13 07:49:03;;;;;;;23.25;10.85;;;;;;;4.26;82.62;95552.34;5078760;28;20032;-68
2021/11/13 07:51:31;;;;;;;16.52;10.00;;;;;;;4.31;82.13;95555.22;5078124;28;20689;-68
2021/11/13 07:53:58;;;;;;;18.67;9.38;;;;;;;4.43;81.15;95557.38;5080360;28;20044;-68
2021/11/13 07:56:25;;;;;;;20.10;9.00;;;;;;;4.50;81.42;95537.63;5083837;28;20048;-69
2021/11/13 07:58:52;;;;;;;18.15;10.10;;;;;;;4.64;81.01;95560.06;5093663;28;20051;-68
2021/11/13 08:01:19;;;;;;;20.75;11.40;;;;;;;4.60;81.26;95548.50;5081860;28;20059;-68
2021/11/13 08:03:46;;;;;;;16.17;8.93;;;;;;;4.78;80.90;95559.28;5083340;28;20402;-69
2021/11/13 08:06:14;;;;;;;21.73;10.90;;;;;;;4.89;80.66;95557.25;5086682;28;20044;-68
2021/11/13 08:08:40;;;;;;;14.82;9.05;;;;;;;5.05;80.81;95557.09;5094047;28;20040;-68
2021/11/13 08:11:08;;;;;;;16.90;9.73;;;;;;;5.15;80.63;95547.28;5088195;28;20056;-68
2021/11/13 08:13:36;;;;;;;13.52;7.97;;;;;;;5.26;79.34;95558.97;5089713;28;20754;-69
2021/11/13 08:16:03;;;;;;;18.75;9.10;;;;;;;5.34;79.47;95550.31;5086785;28;20027;-69
2021/11/13 08:18:30;;;;;;;17.98;8.85;;;;;;;5.48;77.71;95557.22;5100858;27;20049;-70
2021/11/13 08:20:59;;;;;;;14.07;8.25;;;;;;;5.56;77.62;95564.06;5081409;28;20048;-69
2021/11/13 08:23:27;;;;;;;17.00;9.85;;;;;;;5.59;76.97;95568.09;5083299;28;20040;-70
2021/11/13 08:25:55;;;;;;;19.65;10.50;;;;;;;5.52;76.98;95552.50;5081705;28;20036;-70
2021/11/13 08:28:22;;;;;;;18.50;12.00;;;;;;;5.69;75.61;95558.25;5085496;28;20041;-70
2021/11/13 08:30:52;;;;;;;17.38;9.25;;;;;;;5.81;75.89;95561.97;5073082;28;20055;-70
2021/11/13 08:33:23;;;;;;;20.55;11.85;;;;;;;5.86;74.48;95553.66;5087936;28;20123;-70
2021/11/13 08:35:51;;;;;;;17.70;9.52;;;;;;;5.89;75.31;95541.19;5090740;28;20043;-70
2021/11/13 08:38:20;;;;;;;15.82;8.15;;;;;;;6.13;73.86;95554.75;5092507;28;20040;-71
2021/11/13 08:40:49;;;;;;;16.73;9.27;;;;;;;6.24;73.81;95546.50;5084752;28;20032;-71
2021/11/13 08:43:18;;;;;;;16.65;9.02;;;;;;;6.53;73.27;95544.72;5084487;28;20126;-69
2021/11/13 08:45:46;;;;;;;13.05;8.60;;;;;;;6.64;70.29;95546.81;5073939;28;20044;-71
2021/11/13 08:48:13;;;;;;;20.88;9.57;;;;;;;6.73;71.91;95554.44;5095208;28;20076;-71
2021/11/13 08:50:41;;;;;;;21.30;9.55;;;;;;;6.80;72.49;95535.34;5097234;28;20055;-71
2021/11/13 08:53:08;;;;;;;20.55;11.73;;;;;;;7.18;71.09;95534.19;5085851;28;20518;-70
2021/11/13 08:55:38;;;;;;;17.45;11.02;;;;;;;7.37;70.04;95541.25;5090979;28;20402;-70
2021/11/13 08:58:07;;;;;;;24.95;13.05;;;;;;;7.40;69.11;95514.97;5088062;28;20040;-71
2021/11/13 09:00:43;;;;;;;21.77;11.40;;;;;;;7.52;70.74;95522.16;5083426;28;20060;-69
2021/11/13 09:03:14;;;;;;;18.92;11.93;;;;;;;7.89;70.56;95522.69;5087612;28;20047;-71
2021/11/13 09:05:41;;;;;;;18.38;11.30;;;;;;;8.06;67.56;95518.69;5083639;28;20394;-71
2021/11/13 09:08:09;;;;;;;16.67;9.13;;;;;;;8.23;66.99;95514.72;5086686;28;20040;-71
2021/11/13 09:10:37;;;;;;;21.67;10.18;;;;;;;8.59;66.66;95513.56;5083311;28;20040;-71
2021/11/13 09:13:05;;;;;;;20.73;11.27;;;;;;;8.93;65.98;95516.91;5085934;28;20054;-71
2021/11/13 09:15:34;;;;;;;22.95;12.15;;;;;;;9.22;61.81;95517.44;5083233;28;20052;-71
2021/11/13 09:18:02;;;;;;;22.45;11.65;;;;;;;9.22;62.55;95501.84;5086948;28;20039;-71
2021/11/13 09:20:29;;;;;;;21.35;11.43;;;;;;;9.45;61.71;95500.53;5084581;28;20097;-71
2021/11/13 09:22:57;;;;;;;20.27;11.45;;;;;;;9.81;62.39;95488.72;5086081;28;20036;-71
2021/11/13 09:25:24;;;;;;;18.95;10.98;;;;;;;10.16;58.04;95496.13;5071151;28;20141;-70
2021/11/13 09:27:51;;;;;;;31.83;16.33;;;;;;;10.16;57.85;95486.50;5069682;28;20113;-71
2021/11/13 09:30:22;;;;;;;23.58;13.02;;;;;;;10.44;57.40;95499.16;5087140;28;20043;-71
2021/11/13 09:32:50;;;;;;;20.80;11.90;;;;;;;10.73;56.46;95491.66;5085552;28;20554;-71
2021/11/13 09:35:18;;;;;;;20.67;11.07;;;;;;;10.80;55.52;95476.75;5089403;28;20049;-70
2021/11/13 09:37:46;;;;;;;18.85;11.20;;;;;;;11.01;55.20;95487.78;5093376;28;20062;-71
2021/11/13 09:40:20;;;;;;;20.13;11.10;;;;;;;11.18;54.43;95478.38;5063769;28;20059;-71
2021/11/13 09:42:49;;;;;;;18.42;10.93;;;;;;;11.52;53.38;95478.75;5084868;28;20043;-71
2021/11/13 09:45:16;;;;;;;18.90;10.80;;;;;;;11.61;52.81;95477.44;5086962;28;20402;-70
2021/11/13 09:47:44;;;;;;;17.58;10.80;;;;;;;11.64;52.88;95456.09;5091159;28;20504;-70
2021/11/13 09:50:12;;;;;;;23.48;12.50;;;;;;;12.37;51.51;95464.69;5089219;28;20055;-70
2021/11/13 09:52:40;;;;;;;17.90;10.85;;;;;;;12.89;49.01;95465.81;5088192;28;20042;-71
2021/11/13 09:55:08;;;;;;;18.27;9.65;;;;;;;13.39;47.90;95450.38;5085307;28;20044;-71
2021/11/13 09:57:37;;;;;;;22.75;12.93;;;;;;;13.80;47.62;95454.78;5082336;28;20058;-71
2021/11/13 10:00:08;;;;;;;31.70;17.60;;;;;;;14.07;47.43;95439.25;5090773;28;20535;-71
2021/11/13 10:02:37;;;;;;;396.83;140.38;;;;;;;14.22;46.75;95447.34;5087293;28;20051;-71
2021/11/13 10:05:07;;;;;;;139.10;49.88;;;;;;;14.62;44.76;95446.41;5086779;28;20046;-71
2021/11/13 10:07:35;;;;;;;264.00;97.05;;;;;;;15.12;43.28;95438.63;5085773;28;20044;-71
2021/11/13 10:10:08;;;;;;;207.55;88.75;;;;;;;15.36;43.45;95439.97;5084299;28;20040;-71
2021/11/13 10:12:40;;;;;;;82.45;34.38;;;;;;;15.99;41.01;95431.66;5087141;28;20058;-71
2021/11/13 10:15:25;;;;;;;64.85;30.65;;;;;;;15.86;40.37;95428.44;5085334;28;20525;-71
2021/11/13 10:18:05;;;;;;;537.00;220.23;;;;;;;15.85;40.77;95423.41;5082302;28;20051;-71
2021/11/13 10:20:32;;;;;;;210.27;78.63;;;;;;;15.67;41.12;95408.78;5082964;28;20048;-71
2021/11/13 10:23:00;;;;;;;75.82;30.33;;;;;;;16.52;39.16;95418.66;5085153;28;20044;-71
2021/11/13 10:25:27;;;;;;;25.20;11.35;;;;;;;16.57;38.76;95416.84;5082689;28;20413;-71
2021/11/13 10:28:06;;;;;;;25.40;12.80;;;;;;;17.06;36.80;95417.66;5083663;28;20088;-71
2021/11/13 10:30:33;;;;;;;24.35;11.15;;;;;;;17.63;36.72;95400.97;5091305;28;20584;-71
2021/11/13 10:33:00;;;;;;;17.35;9.73;;;;;;;17.95;36.31;95407.84;5083480;28;20048;-71
2021/11/13 10:36:03;;;;;;;16.20;10.27;;;;;;;18.52;35.37;95403.34;5083712;28;20527;-72
2021/11/13 10:38:29;;;;;;;15.38;8.80;;;;;;;18.86;34.05;95400.91;5001094;28;20084;-71
2021/11/13 10:40:59;;;;;;;51.95;21.98;;;;;;;18.77;34.00;95399.84;5066828;28;20067;-71
2021/11/13 10:43:35;;;;;;;18.50;9.38;;;;;;;18.74;33.55;95397.75;5083860;28;20517;-71
2021/11/13 10:46:24;;;;;;;15.73;8.18;;;;;;;19.53;32.85;95397.97;5083317;28;20051;-71
2021/11/13 10:48:58;;;;;;;12.55;7.35;;;;;;;20.08;32.24;95386.50;5083104;28;20036;-71
2021/11/13 10:51:28;;;;;;;24.33;8.77;;;;;;;19.63;32.70;95382.06;5098005;28;20120;-72
2021/11/13 10:53:56;;;;;;;11.57;6.45;;;;;;;20.25;31.26;95371.03;5082280;28;20062;-71
2021/11/13 10:56:27;;;;;;;7.68;5.05;;;;;;;20.55;30.07;95363.88;5082240;28;20047;-70
2021/11/13 10:59:03;;;;;;;6.85;5.18;;;;;;;20.84;30.13;95381.59;5085348;28;20421;-71
2021/11/13 11:01:37;;;;;;;9.68;4.63;;;;;;;21.26;29.27;95377.34;5092157;28;20043;-71
2021/11/13 11:04:12;;;;;;;;;;;;;;;20.80;29.39;95376.84;5087679;28;20036;-71
2021/11/13 11:06:47;;;;;;;12.43;6.38;;;;;;;20.93;29.50;95364.78;5090033;28;19931;-71
2021/11/13 11:09:25;;;;;;;15.05;8.10;;;;;;;20.13;31.59;95360.03;5085508;28;20480;-72
2021/11/13 11:11:56;;;;;;;8.82;5.03;;;;;;;20.96;30.26;95361.56;5084628;28;21886;-71
2021/11/13 11:14:27;;;;;;;10.95;5.65;;;;;;;20.55;29.70;95348.78;5084517;28;20028;-68
2021/11/13 11:17:06;;;;;;;7.32;4.55;;;;;;;20.03;31.67;95348.47;5092513;28;20059;-71
2021/11/13 11:19:35;;;;;;;16.38;7.40;;;;;;;19.79;30.71;95352.91;5085940;28;20054;-71
2021/11/13 11:22:04;;;;;;;7.95;4.72;;;;;;;19.35;31.56;95348.44;5082370;28;20044;-71
2021/11/13 11:24:56;;;;;;;5.65;3.65;;;;;;;19.57;31.94;95346.19;5088387;28;20442;-71
2021/11/13 11:27:29;;;;;;;6.25;3.75;;;;;;;19.79;31.20;95347.59;5076810;28;20055;-70
2021/11/13 11:30:00;;;;;;;5.95;3.75;;;;;;;19.91;31.33;95340.13;5086846;28;20044;-70
2021/11/13 11:32:31;;;;;;;6.68;4.13;;;;;;;19.80;29.98;95341.28;5084962;28;20154;-67